Time;durP1;ratioP1;P1;durP2;ratioP2;P2;SDS_P1;SDS_P2;PMS_P1;PMS_P2;Temp;Humidity;BMP_temperature;BMP_pressure;BME280_temperature;BME280_humidity;BME280_pressure;Samples;Min_cycle;Max_cycle;Signal;HPM_P1;HPM_P2
2022/06/24 00:01:18;;;;;;;1.88;1.38;;;21.50;18.40;;;;;;5140826;27;34189;-76
2022/06/24 00:03:45;;;;;;;2.15;1.33;;;21.50;18.50;;;;;;5124378;27;34277;-76
2022/06/24 00:06:15;;;;;;;3.38;1.33;;;21.50;18.60;;;;;;5149873;27;34399;-76
2022/06/24 00:08:57;;;;;;;2.97;1.63;;;21.50;18.70;;;;;;5144188;27;35605;-76
2022/06/24 00:11:26;;;;;;;4.30;0.95;;;21.50;20.40;;;;;;5135137;27;34112;-76
2022/06/24 00:14:03;;;;;;;4.95;1.50;;;21.40;18.60;;;;;;5123517;27;34111;-76
2022/06/24 00:16:29;;;;;;;1.67;1.08;;;21.40;18.50;;;;;;5127952;27;34176;-76
2022/06/24 00:19:10;;;;;;;2.28;1.30;;;21.40;18.50;;;;;;5144937;27;34227;-76
2022/06/24 00:21:37;;;;;;;2.05;1.25;;;21.40;20.60;;;;;;5131705;27;34117;-76
2022/06/24 00:24:03;;;;;;;1.05;1.02;;;21.30;18.70;;;;;;5123219;27;34138;-76
2022/06/24 00:26:38;;;;;;;5.07;1.50;;;21.30;18.80;;;;;;5122685;27;34327;-76
2022/06/24 00:29:04;;;;;;;3.53;1.38;;;21.30;20.00;;;;;;5122973;27;35929;-76
2022/06/24 00:31:30;;;;;;;2.22;1.38;;;21.20;18.90;;;;;;5105597;27;34124;-77
2022/06/24 00:33:56;;;;;;;1.75;1.33;;;21.20;19.10;;;;;;5139011;27;34115;-76
2022/06/24 00:36:22;;;;;;;3.22;1.40;;;21.20;19.20;;;;;;5143934;27;34429;-76
2022/06/24 00:38:52;;;;;;;1.42;1.33;;;21.20;19.20;;;;;;5144749;27;34325;-76
2022/06/24 00:41:24;;;;;;;2.53;1.30;;;21.20;19.60;;;;;;5161405;27;34239;-76
2022/06/24 00:43:55;;;;;;;2.40;1.40;;;21.20;20.50;;;;;;5132989;27;34342;-76
2022/06/24 00:46:27;;;;;;;1.90;1.60;;;21.10;19.50;;;;;;5123071;27;34171;-76
2022/06/24 00:48:57;;;;;;;5.95;1.30;;;21.10;19.90;;;;;;5122432;27;36369;-76
2022/06/24 00:51:32;;;;;;;2.38;1.45;;;21.10;19.70;;;;;;5131197;27;34189;-76
2022/06/24 00:53:58;;;;;;;2.40;1.67;;;21.10;20.40;;;;;;5144989;27;34434;-76
2022/06/24 00:56:27;;;;;;;2.25;1.60;;;21.10;20.00;;;;;;5126082;27;34386;-76
2022/06/24 00:58:55;;;;;;;2.50;1.55;;;21.10;19.80;;;;;;5143600;27;34709;-76
2022/06/24 01:01:31;;;;;;;1.92;1.40;;;21.10;19.80;;;;;;5143864;27;34265;-76
2022/06/24 01:03:58;;;;;;;3.78;1.60;;;21.10;21.20;;;;;;5122897;27;34227;-76
2022/06/24 01:06:25;;;;;;;3.58;1.42;;;21.10;19.90;;;;;;5112603;27;34364;-76
2022/06/24 01:08:51;;;;;;;3.85;1.88;;;21.10;20.00;;;;;;5124590;27;35737;-76
2022/06/24 01:11:34;;;;;;;2.28;1.67;;;21.10;20.00;;;;;;5124278;27;34211;-76
2022/06/24 01:14:00;;;;;;;4.43;1.77;;;21.10;21.80;;;;;;5125942;27;34066;-76
2022/06/24 01:16:27;;;;;;;2.67;1.80;;;21.10;20.00;;;;;;5127480;27;34463;-76
2022/06/24 01:18:56;;;;;;;3.75;2.60;;;21.10;20.00;;;;;;5125892;27;36435;-76
2022/06/24 01:21:34;;;;;;;2.15;1.60;;;21.10;20.00;;;;;;5127444;27;34045;-76
2022/06/24 01:24:17;;;;;;;2.10;1.70;;;21.10;22.30;;;;;;5127087;27;34189;-77
2022/06/24 01:26:47;;;;;;;3.08;1.70;;;21.10;22.60;;;;;;5126110;27;34641;-76
2022/06/24 01:29:14;;;;;;;2.92;1.45;;;21.10;20.50;;;;;;5125839;27;35640;-76
2022/06/24 01:31:41;;;;;;;3.42;1.77;;;21.00;20.20;;;;;;5126823;27;34068;-76
2022/06/24 01:34:09;;;;;;;1.45;1.35;;;21.00;20.30;;;;;;5126006;27;34566;-76
2022/06/24 01:36:36;;;;;;;3.15;2.03;;;21.00;20.50;;;;;;5125520;27;34477;-76
2022/06/24 01:39:04;;;;;;;2.53;1.80;;;21.00;20.70;;;;;;5125587;27;35895;-76
2022/06/24 01:41:31;;;;;;;3.92;1.75;;;21.00;20.70;;;;;;5125480;27;34080;-76
2022/06/24 01:43:57;;;;;;;3.67;1.90;;;21.00;20.80;;;;;;5143202;27;34234;-76
2022/06/24 01:46:23;;;;;;;1.83;1.67;;;20.90;20.90;;;;;;5126852;27;34317;-76
2022/06/24 01:48:49;;;;;;;3.72;1.75;;;21.00;20.80;;;;;;5145070;27;35675;-77
2022/06/24 01:51:17;;;;;;;2.67;1.73;;;21.00;20.90;;;;;;5146176;27;34388;-77
2022/06/24 01:53:43;;;;;;;2.05;1.70;;;21.00;21.00;;;;;;5146248;27;34186;-76
2022/06/24 01:56:09;;;;;;;2.85;1.80;;;21.00;21.00;;;;;;5147654;27;34080;-76
2022/06/24 01:58:35;;;;;;;3.50;1.98;;;20.90;21.00;;;;;;5143882;27;36384;-77
2022/06/24 02:01:01;;;;;;;3.45;1.85;;;20.90;21.00;;;;;;5126598;27;34249;-77
2022/06/24 02:03:29;;;;;;;2.00;1.52;;;21.00;21.00;;;;;;5125477;27;34220;-77
2022/06/24 02:05:59;;;;;;;4.32;1.88;;;20.90;21.20;;;;;;5125364;27;34468;-76
2022/06/24 02:08:26;;;;;;;2.55;1.80;;;20.90;21.10;;;;;;5124796;27;35801;-77
2022/06/24 02:13:32;;;;;;;3.20;1.58;;;20.90;20.50;;;;;;5146256;27;34040;-77
2022/06/24 02:16:03;;;;;;;3.13;1.50;;;20.90;20.30;;;;;;5147177;27;34153;-77
2022/06/24 02:18:30;;;;;;;6.95;1.65;;;20.90;21.00;;;;;;5145501;27;35862;-76
2022/06/24 02:20:57;;;;;;;6.13;1.90;;;20.80;20.20;;;;;;5145900;27;34132;-77
2022/06/24 02:23:23;;;;;;;4.53;1.70;;;20.80;20.20;;;;;;5145879;27;34120;-77
2022/06/24 02:25:51;;;;;;;7.43;1.77;;;20.80;20.10;;;;;;5141274;27;34216;-77
2022/06/24 02:28:17;;;;;;;4.90;1.60;;;20.80;20.00;;;;;;5124972;27;36619;-76
2022/06/24 02:30:45;;;;;;;3.75;1.80;;;20.80;20.00;;;;;;5129949;27;34155;-76
2022/06/24 02:33:11;;;;;;;3.67;1.35;;;20.70;19.90;;;;;;5145831;27;34248;-77
2022/06/24 02:35:38;;;;;;;1.83;1.30;;;20.60;19.90;;;;;;5147202;27;34191;-77
2022/06/24 02:38:04;;;;;;;4.75;1.30;;;20.60;19.80;;;;;;5127878;27;35818;-78
2022/06/24 02:43:16;;;;;;;3.30;1.42;;;20.50;19.80;;;;;;5125783;27;34222;-76
2022/06/24 02:45:45;;;;;;;6.75;1.83;;;20.50;20.00;;;;;;5124955;27;34515;-76
2022/06/24 02:48:11;;;;;;;3.28;1.50;;;20.40;19.80;;;;;;5125484;27;34314;-77
2022/06/24 02:50:39;;;;;;;2.97;1.40;;;20.40;19.60;;;;;;5141843;27;34211;-76
2022/06/24 02:53:05;;;;;;;4.00;1.50;;;20.40;19.60;;;;;;5124746;27;34257;-76
2022/06/24 02:55:31;;;;;;;4.85;1.67;;;20.40;19.60;;;;;;5124839;27;34443;-77
2022/06/24 02:57:57;;;;;;;4.10;1.40;;;20.40;19.50;;;;;;5131478;27;35302;-76
2022/06/24 03:00:23;;;;;;;4.13;1.45;;;20.30;19.60;;;;;;5126864;27;34122;-77
2022/06/24 03:02:49;;;;;;;2.38;1.17;;;20.30;19.60;;;;;;5124482;27;34186;-76
2022/06/24 03:05:14;;;;;;;1.55;1.45;;;20.30;19.50;;;;;;5124445;27;34005;-77
2022/06/24 03:07:40;;;;;;;9.18;1.77;;;20.30;19.50;;;;;;5123699;27;36641;-77
2022/06/24 03:10:07;;;;;;;4.03;1.67;;;20.30;19.40;;;;;;5124691;27;34112;-77
2022/06/24 03:12:33;;;;;;;4.60;1.50;;;20.30;19.40;;;;;;5124352;27;34472;-76
2022/06/24 03:14:59;;;;;;;4.82;1.63;;;20.30;19.40;;;;;;5124251;27;34401;-76
2022/06/24 03:17:25;;;;;;;3.88;1.38;;;20.40;19.30;;;;;;5158562;27;34447;-77
2022/06/24 03:19:51;;;;;;;4.57;1.65;;;20.40;19.30;;;;;;5125406;27;34209;-77
2022/06/24 03:22:16;;;;;;;1.83;1.48;;;20.40;19.30;;;;;;5141971;27;34325;-77
2022/06/24 03:24:42;;;;;;;4.72;1.73;;;20.30;19.20;;;;;;5124275;27;34144;-77
2022/06/24 03:27:08;;;;;;;1.90;1.42;;;20.30;19.30;;;;;;5125254;27;34057;-76
2022/06/24 03:29:34;;;;;;;2.55;1.55;;;20.30;19.30;;;;;;5123856;27;34103;-77
2022/06/24 03:32:00;;;;;;;5.35;1.75;;;20.30;19.40;;;;;;5125215;27;34451;-75
2022/06/24 03:34:26;;;;;;;5.43;1.80;;;20.30;19.50;;;;;;5122632;27;34297;-76
2022/06/24 03:36:52;;;;;;;3.72;1.33;;;20.30;19.60;;;;;;5123669;27;36014;-76
2022/06/24 03:39:18;;;;;;;5.05;1.65;;;20.30;19.70;;;;;;5124052;27;34193;-77
2022/06/24 03:41:43;;;;;;;4.07;1.48;;;20.20;19.70;;;;;;5123651;27;34275;-76
2022/06/24 03:44:09;;;;;;;7.95;1.40;;;20.20;19.90;;;;;;5124924;27;34041;-76
2022/06/24 03:46:35;;;;;;;2.95;1.65;;;20.10;20.00;;;;;;5124306;27;34835;-77
2022/06/24 03:49:01;;;;;;;7.82;1.70;;;20.10;20.00;;;;;;5123994;27;34297;-77
2022/06/24 03:51:27;;;;;;;2.40;1.40;;;20.10;20.10;;;;;;5123697;27;34218;-76
2022/06/24 03:53:53;;;;;;;4.03;1.60;;;20.10;20.20;;;;;;5123822;27;34157;-76
2022/06/24 03:56:19;;;;;;;5.95;1.60;;;20.10;20.30;;;;;;5124687;27;34375;-75
2022/06/24 03:58:44;;;;;;;2.47;1.40;;;20.10;20.60;;;;;;5123376;27;34052;-74
2022/06/24 04:01:10;;;;;;;4.20;1.40;;;20.00;20.70;;;;;;5134514;27;34312;-74
2022/06/24 04:03:36;;;;;;;4.13;1.63;;;20.00;21.00;;;;;;5123778;27;34133;-74
2022/06/24 04:06:02;;;;;;;5.32;1.73;;;19.90;21.00;;;;;;5124362;27;34220;-74
2022/06/24 04:08:28;;;;;;;4.40;1.67;;;19.90;21.30;;;;;;5124301;27;34272;-74
2022/06/24 04:10:54;;;;;;;1.83;1.42;;;19.90;21.30;;;;;;5124626;27;34217;-73
2022/06/24 04:13:20;;;;;;;3.00;1.30;;;19.90;21.40;;;;;;5158016;27;34113;-74
2022/06/24 04:15:49;;;;;;;2.83;1.50;;;19.90;21.50;;;;;;5140042;27;35716;-73
2022/06/24 04:18:16;;;;;;;2.97;1.80;;;19.90;21.60;;;;;;5157097;27;34414;-74
2022/06/24 04:20:42;;;;;;;2.78;1.50;;;19.90;21.70;;;;;;5123199;27;34138;-74
2022/06/24 04:23:08;;;;;;;2.10;1.60;;;19.90;21.90;;;;;;5123408;27;34386;-73
2022/06/24 04:25:34;;;;;;;2.95;1.63;;;19.90;21.90;;;;;;5122732;27;36116;-74
2022/06/24 04:28:01;;;;;;;3.97;1.85;;;19.90;22.00;;;;;;5122695;27;34282;-74
2022/06/24 04:30:27;;;;;;;2.95;1.70;;;19.90;22.10;;;;;;5123157;27;34183;-74
2022/06/24 04:32:53;;;;;;;2.40;1.50;;;19.90;22.30;;;;;;5123496;27;34196;-76
2022/06/24 04:35:19;;;;;;;5.55;1.50;;;19.90;22.30;;;;;;5122542;27;35525;-74
2022/06/24 04:37:45;;;;;;;6.70;1.60;;;19.80;22.30;;;;;;5122714;27;34131;-74
2022/06/24 04:40:13;;;;;;;1.40;1.30;;;19.80;22.50;;;;;;5148058;27;34181;-75
2022/06/24 04:42:39;;;;;;;2.67;1.70;;;19.70;22.80;;;;;;5123740;27;34170;-75
2022/06/24 04:45:06;;;;;;;2.10;1.60;;;19.70;22.70;;;;;;5122675;27;36574;-75
2022/06/24 04:47:32;;;;;;;2.35;1.33;;;19.70;22.90;;;;;;5126129;27;34237;-76
2022/06/24 04:49:58;;;;;;;3.35;1.20;;;19.70;23.20;;;;;;5126925;27;34382;-76
2022/06/24 04:52:24;;;;;;;3.00;1.20;;;19.60;23.30;;;;;;5126450;27;34086;-76
2022/06/24 04:54:50;;;;;;;3.33;1.23;;;19.60;23.40;;;;;;5126193;27;35604;-75
2022/06/24 04:57:16;;;;;;;1.52;1.27;;;19.50;23.50;;;;;;5126257;27;34134;-75
2022/06/24 04:59:42;;;;;;;1.50;1.00;;;19.50;23.50;;;;;;5126439;27;34198;-75
2022/06/24 05:02:08;;;;;;;1.73;0.98;;;19.50;23.40;;;;;;5127713;27;34127;-76
2022/06/24 05:04:35;;;;;;;2.15;0.90;;;19.50;23.50;;;;;;5125790;27;36040;-76
2022/06/24 05:07:02;;;;;;;3.05;1.27;;;19.50;23.80;;;;;;5127065;27;34220;-76
2022/06/24 05:09:28;;;;;;;0.95;0.82;;;19.50;23.80;;;;;;5125920;27;34286;-76
2022/06/24 05:11:54;;;;;;;0.90;0.90;;;19.50;23.90;;;;;;5136455;27;34049;-75
2022/06/24 05:14:20;;;;;;;2.05;1.15;;;19.50;23.90;;;;;;5125958;27;35953;-76
2022/06/24 05:16:46;;;;;;;1.20;1.10;;;19.50;24.10;;;;;;5135154;27;34148;-76
2022/06/24 05:19:13;;;;;;;1.73;1.00;;;19.60;23.90;;;;;;5147076;27;34212;-75
2022/06/24 05:21:39;;;;;;;2.72;1.27;;;19.60;24.10;;;;;;5139909;27;34246;-76
2022/06/24 05:24:06;;;;;;;1.13;0.95;;;19.60;24.00;;;;;;5127039;27;34395;-76
2022/06/24 05:26:32;;;;;;;1.35;1.10;;;19.70;24.20;;;;;;5143136;27;34776;-76
2022/06/24 05:28:58;;;;;;;1.45;1.17;;;19.70;24.20;;;;;;5160894;27;34165;-76
2022/06/24 05:31:24;;;;;;;1.27;1.13;;;19.80;24.10;;;;;;5160682;27;34411;-76
2022/06/24 05:33:50;;;;;;;2.72;1.33;;;19.80;24.00;;;;;;5126815;27;35266;-76
2022/06/24 05:36:16;;;;;;;4.22;1.30;;;19.80;24.00;;;;;;5151965;27;34278;-77
2022/06/24 05:38:42;;;;;;;1.55;1.40;;;19.90;24.10;;;;;;5145350;27;34166;-76
2022/06/24 05:41:08;;;;;;;2.72;1.35;;;19.90;24.00;;;;;;5139130;27;34024;-76
2022/06/24 05:43:34;;;;;;;4.43;1.58;;;20.00;24.00;;;;;;5125300;27;36637;-76
2022/06/24 05:46:00;;;;;;;2.65;1.30;;;20.00;24.00;;;;;;5125670;27;34175;-76
2022/06/24 05:48:27;;;;;;;2.22;1.40;;;20.10;24.10;;;;;;5125314;27;34197;-77
2022/06/24 05:50:53;;;;;;;2.60;1.30;;;20.10;24.10;;;;;;5125941;27;34496;-76
2022/06/24 05:56:02;;;;;;;1.52;1.42;;;20.20;24.00;;;;;;5139882;27;34381;-76
2022/06/24 05:58:29;;;;;;;4.50;1.88;;;20.30;24.10;;;;;;5124923;27;34460;-77
2022/06/24 06:00:56;;;;;;;1.70;1.60;;;20.30;24.20;;;;;;5125519;27;34062;-77
2022/06/24 06:03:23;;;;;;;2.47;1.65;;;20.30;24.10;;;;;;5126496;27;36498;-77
2022/06/24 06:05:50;;;;;;;1.30;1.20;;;20.30;24.00;;;;;;5146043;27;34265;-76
2022/06/24 06:08:17;;;;;;;2.33;1.52;;;20.40;24.00;;;;;;5145988;27;34367;-75
2022/06/24 06:10:44;;;;;;;1.88;1.30;;;20.40;24.10;;;;;;5146417;27;34422;-76
2022/06/24 06:13:12;;;;;;;2.40;1.52;;;20.40;24.00;;;;;;5138324;27;34198;-75
2022/06/24 06:15:40;;;;;;;2.55;1.50;;;20.40;24.00;;;;;;5145913;27;34189;-75
2022/06/24 06:18:06;;;;;;;1.35;1.25;;;20.40;24.10;;;;;;5145800;27;34175;-75
2022/06/24 06:20:32;;;;;;;1.60;1.23;;;20.40;23.90;;;;;;5146020;27;34598;-75
2022/06/24 06:22:58;;;;;;;3.13;1.42;;;20.40;23.70;;;;;;5145729;27;36584;-75
2022/06/24 06:25:24;;;;;;;2.25;1.52;;;20.50;23.70;;;;;;5145450;27;34118;-75
2022/06/24 06:27:50;;;;;;;1.98;1.50;;;20.50;23.70;;;;;;5146898;27;34305;-75
2022/06/24 06:30:17;;;;;;;3.97;1.42;;;20.60;23.60;;;;;;5144453;27;34086;-75
2022/06/24 06:32:42;;;;;;;1.70;1.55;;;20.60;23.40;;;;;;5126096;27;35163;-74
2022/06/24 06:35:09;;;;;;;1.75;1.50;;;20.70;23.40;;;;;;5140546;27;34512;-74
2022/06/24 06:37:35;;;;;;;2.20;1.40;;;20.80;23.40;;;;;;5136972;27;34262;-74
2022/06/24 06:40:02;;;;;;;3.22;1.75;;;20.80;23.20;;;;;;5124632;27;34180;-74
2022/06/24 06:42:28;;;;;;;2.40;1.52;;;20.90;23.20;;;;;;5127440;27;35810;-74
2022/06/24 06:44:55;;;;;;;2.45;1.55;;;21.00;23.10;;;;;;5145652;27;34373;-75
2022/06/24 06:47:21;;;;;;;1.33;1.30;;;21.10;23.70;;;;;;5146704;27;34228;-73
2022/06/24 06:49:47;;;;;;;2.08;1.50;;;21.20;23.00;;;;;;5127724;27;34117;-74
2022/06/24 06:52:12;;;;;;;1.45;1.30;;;21.40;22.60;;;;;;5129977;27;35529;-74
2022/06/24 06:54:39;;;;;;;1.55;1.40;;;21.60;22.00;;;;;;5130717;27;34049;-75
2022/06/24 06:57:05;;;;;;;1.58;1.40;;;22.20;21.00;;;;;;5143929;27;34265;-75
2022/06/24 06:59:31;;;;;;;1.48;1.38;;;22.90;20.00;;;;;;5141363;27;34107;-75
2022/06/24 07:01:58;;;;;;;1.40;1.30;;;23.20;19.30;;;;;;5125097;27;36623;-75
2022/06/24 07:04:24;;;;;;;3.80;1.48;;;23.40;18.10;;;;;;5124348;27;34566;-76
2022/06/24 07:06:52;;;;;;;3.65;1.42;;;23.30;18.50;;;;;;5136937;27;34295;-76
2022/06/24 07:09:19;;;;;;;1.73;1.20;;;23.20;18.50;;;;;;5140390;27;34180;-76
2022/06/24 07:11:45;;;;;;;2.10;1.40;;;23.00;18.70;;;;;;5124313;27;35883;-76
2022/06/24 07:14:11;;;;;;;1.58;1.48;;;22.90;18.80;;;;;;5126443;27;34283;-77
2022/06/24 07:16:37;;;;;;;2.08;1.40;;;22.90;19.00;;;;;;5128528;27;34156;-78
2022/06/24 07:19:03;;;;;;;1.35;1.25;;;22.80;19.00;;;;;;5140029;27;34166;-77
2022/06/24 07:21:29;;;;;;;3.20;1.42;;;22.70;19.00;;;;;;5133516;27;35666;-76
2022/06/24 07:23:55;;;;;;;3.38;1.20;;;22.60;19.10;;;;;;5144684;27;34096;-77
2022/06/24 07:26:21;;;;;;;1.40;1.30;;;22.60;19.30;;;;;;5144687;27;34290;-77
2022/06/24 07:28:47;;;;;;;1.40;1.30;;;22.60;19.20;;;;;;5145735;27;34067;-77
2022/06/24 07:31:16;;;;;;;2.13;1.27;;;22.50;19.20;;;;;;5145948;27;34401;-77
2022/06/24 07:33:42;;;;;;;1.42;1.20;;;22.50;19.20;;;;;;5145978;27;34082;-78
2022/06/24 07:36:08;;;;;;;2.63;1.30;;;22.70;18.90;;;;;;5144789;27;34020;-77
2022/06/24 07:38:34;;;;;;;1.40;1.30;;;22.80;18.80;;;;;;5138288;27;34705;-76
2022/06/24 07:41:00;;;;;;;1.50;1.40;;;23.10;18.70;;;;;;5148313;27;36857;-78
2022/06/24 07:43:26;;;;;;;3.42;1.52;;;23.40;18.20;;;;;;5166590;27;34320;-76
2022/06/24 07:45:53;;;;;;;2.35;1.30;;;23.50;18.00;;;;;;5148364;27;34322;-76
2022/06/24 07:48:19;;;;;;;4.13;1.40;;;23.60;17.80;;;;;;5136806;27;34212;-78
2022/06/24 07:50:44;;;;;;;1.60;1.20;;;23.90;17.40;;;;;;5146637;27;36714;-77
2022/06/24 07:53:10;;;;;;;2.70;1.73;;;24.20;16.90;;;;;;5152869;27;33672;-80
2022/06/24 07:58:17;;;;;;;1.63;1.40;;;24.30;16.50;;;;;;5128515;27;34115;-80
2022/06/24 08:00:43;;;;;;;1.40;1.30;;;24.30;16.40;;;;;;5124250;27;35674;-80
2022/06/24 08:03:09;;;;;;;1.77;1.40;;;24.30;16.40;;;;;;5126097;27;34090;-78
2022/06/24 08:05:35;;;;;;;2.47;1.48;;;24.30;16.50;;;;;;5144099;27;34588;-78
2022/06/24 08:08:01;;;;;;;1.25;1.20;;;24.30;16.50;;;;;;5136052;27;34179;-77
2022/06/24 08:10:28;;;;;;;1.30;1.20;;;24.40;16.60;;;;;;5125915;27;34377;-80
2022/06/24 08:12:54;;;;;;;3.90;1.27;;;24.60;16.30;;;;;;5145661;27;34230;-77
2022/06/24 08:15:20;;;;;;;2.67;1.58;;;24.50;16.10;;;;;;5144638;27;34404;-77
2022/06/24 08:17:48;;;;;;;1.80;1.52;;;24.40;16.00;;;;;;5146320;27;34047;-77
2022/06/24 08:20:14;;;;;;;1.80;1.50;;;24.30;16.10;;;;;;5144514;27;36636;-79
2022/06/24 08:22:40;;;;;;;1.50;1.40;;;24.30;16.70;;;;;;5135471;27;33892;-79
2022/06/24 08:25:07;;;;;;;3.10;1.65;;;24.20;16.20;;;;;;5145389;27;34246;-78
2022/06/24 08:27:33;;;;;;;1.65;1.30;;;24.00;16.40;;;;;;5144808;27;34139;-79
2022/06/24 08:29:59;;;;;;;2.97;1.50;;;23.90;16.50;;;;;;5127050;27;35867;-78
2022/06/24 08:32:25;;;;;;;2.13;1.70;;;23.70;16.40;;;;;;5147065;27;34104;-77
2022/06/24 08:34:51;;;;;;;1.70;1.55;;;23.60;16.50;;;;;;5156111;27;34454;-78
2022/06/24 08:37:17;;;;;;;1.33;1.23;;;23.60;17.00;;;;;;5140527;27;33982;-78
2022/06/24 08:39:43;;;;;;;1.20;1.10;;;23.70;16.40;;;;;;5127593;27;35777;-78
2022/06/24 08:42:12;;;;;;;1.85;1.40;;;23.90;16.30;;;;;;5136844;27;34141;-79
2022/06/24 08:44:40;;;;;;;2.40;1.50;;;24.00;15.20;;;;;;5138670;27;34499;-79
2022/06/24 08:47:06;;;;;;;2.75;1.52;;;24.20;15.80;;;;;;5144719;27;34360;-76
2022/06/24 08:49:33;;;;;;;2.63;1.48;;;24.30;15.80;;;;;;5135361;27;35417;-77
2022/06/24 08:52:01;;;;;;;2.10;1.63;;;24.50;15.50;;;;;;5178360;27;34139;-77
2022/06/24 08:54:30;;;;;;;2.33;1.55;;;24.60;15.30;;;;;;5144928;27;34063;-77
2022/06/24 08:56:57;;;;;;;1.58;1.48;;;24.60;14.30;;;;;;5131232;27;34061;-77
2022/06/24 08:59:23;;;;;;;2.05;1.77;;;24.70;15.10;;;;;;5146650;27;36371;-77
2022/06/24 09:01:49;;;;;;;1.33;1.23;;;24.80;15.00;;;;;;5143668;27;34468;-80
2022/06/24 09:04:15;;;;;;;1.90;1.42;;;24.80;14.80;;;;;;5146558;27;33748;-78
2022/06/24 09:06:41;;;;;;;3.03;1.60;;;24.90;14.30;;;;;;5128967;27;34257;-80
2022/06/24 09:09:08;;;;;;;1.77;1.40;;;24.90;14.40;;;;;;5146801;27;34215;-77
2022/06/24 09:11:40;;;;;;;1.52;1.42;;;25.00;14.00;;;;;;5144660;27;35190;-79
2022/06/24 09:14:07;;;;;;;1.48;1.30;;;25.20;13.20;;;;;;5145785;27;34273;-76
2022/06/24 09:16:35;;;;;;;2.22;1.67;;;25.30;13.80;;;;;;5144396;27;34382;-78
2022/06/24 09:19:05;;;;;;;3.25;1.73;;;25.50;12.70;;;;;;5147962;27;35528;-76
2022/06/24 09:21:36;;;;;;;1.65;1.55;;;25.50;13.20;;;;;;5152844;27;34363;-78
2022/06/24 09:24:03;;;;;;;2.58;1.58;;;25.50;13.20;;;;;;5117473;27;34384;-77
2022/06/24 09:26:32;;;;;;;2.10;1.67;;;25.50;12.80;;;;;;5154624;27;34181;-79
2022/06/24 09:29:00;;;;;;;1.77;1.67;;;25.40;12.40;;;;;;5145794;27;35589;-78
2022/06/24 09:31:28;;;;;;;5.35;1.73;;;25.30;13.00;;;;;;5141844;27;34092;-78
2022/06/24 09:33:55;;;;;;;3.40;1.55;;;25.60;12.80;;;;;;5163157;27;34426;-79
2022/06/24 09:36:24;;;;;;;2.58;1.75;;;26.10;12.50;;;;;;5137994;27;34415;-81
2022/06/24 09:38:57;;;;;;;1.55;1.45;;;26.60;12.00;;;;;;5127141;27;35640;-77
2022/06/24 09:41:24;;;;;;;2.90;1.63;;;27.10;10.80;;;;;;5133430;27;34562;-79
2022/06/24 09:43:52;;;;;;;2.90;1.65;;;27.40;11.00;;;;;;5142687;27;34071;-77
2022/06/24 09:46:21;;;;;;;1.50;1.40;;;27.60;10.80;;;;;;5147471;27;34143;-76
2022/06/24 09:48:48;;;;;;;1.42;1.30;;;27.80;10.30;;;;;;5143455;27;34150;-76
2022/06/24 09:51:16;;;;;;;1.88;1.77;;;28.10;10.60;;;;;;5146833;27;34209;-76
2022/06/24 09:53:43;;;;;;;2.97;1.40;;;28.20;10.00;;;;;;5131156;27;34058;-78
2022/06/24 09:56:10;;;;;;;1.65;1.40;;;28.30;9.50;;;;;;5127459;27;34076;-79
2022/06/24 09:58:39;;;;;;;1.45;1.30;;;28.10;9.30;;;;;;5140963;27;34806;-82
2022/06/24 10:01:06;;;;;;;2.83;1.38;;;28.00;9.20;;;;;;5145375;27;34172;-79
2022/06/24 10:03:34;;;;;;;1.40;1.27;;;27.80;8.90;;;;;;5146477;27;34639;-82
2022/06/24 10:06:03;;;;;;;1.92;1.40;;;27.60;8.10;;;;;;5148710;27;34332;-77
2022/06/24 10:08:34;;;;;;;1.65;1.35;;;27.30;8.80;;;;;;5147639;27;35621;-78
2022/06/24 10:11:05;;;;;;;1.35;1.23;;;26.90;7.90;;;;;;5136681;27;34286;-79
2022/06/24 10:13:33;;;;;;;1.40;1.30;;;26.70;9.20;;;;;;5145794;27;34251;-78
2022/06/24 10:16:03;;;;;;;1.40;1.30;;;26.30;9.30;;;;;;5144893;27;34169;-78
2022/06/24 10:18:34;;;;;;;1.25;1.25;;;26.20;9.70;;;;;;5127644;27;34447;-77
2022/06/24 10:21:04;;;;;;;3.15;1.33;;;26.10;9.10;;;;;;5143732;27;34309;-79
2022/06/24 10:23:54;;;;;;;2.60;1.63;;;25.90;9.40;;;;;;5121072;27;34132;-78
2022/06/24 10:26:35;;;;;;;2.53;1.58;;;25.90;7.60;;;;;;5160751;27;34289;-77
2022/06/24 10:29:19;;;;;;;1.40;1.30;;;25.70;8.90;;;;;;5145801;27;35546;-78
2022/06/24 10:31:52;;;;;;;1.45;1.35;;;25.50;9.00;;;;;;5144317;27;34106;-77
2022/06/24 10:34:34;;;;;;;2.97;1.50;;;25.40;9.70;;;;;;5168179;27;34119;-78
2022/06/24 10:37:08;;;;;;;1.52;1.42;;;25.30;9.70;;;;;;5154727;27;34385;-78
2022/06/24 10:39:46;;;;;;;1.52;1.42;;;25.70;10.90;;;;;;5146745;27;35964;-77
2022/06/24 10:42:14;;;;;;;2.30;1.60;;;26.10;9.90;;;;;;5143046;27;33805;-76
2022/06/24 10:45:02;;;;;;;1.50;1.40;;;26.60;9.80;;;;;;5147604;27;34454;-77
2022/06/24 10:47:38;;;;;;;2.45;1.63;;;26.90;7.60;;;;;;5147638;27;34067;-81
2022/06/24 10:50:09;;;;;;;3.15;1.50;;;27.10;6.00;;;;;;5139139;27;35695;-77
2022/06/24 10:52:45;;;;;;;1.63;1.30;;;27.40;8.20;;;;;;5132439;27;34441;-77
2022/06/24 10:55:28;;;;;;;2.65;1.10;;;27.40;6.60;;;;;;5119635;27;34349;-79
2022/06/24 10:57:57;;;;;;;2.13;1.17;;;27.30;6.00;;;;;;5148740;27;34272;-78
2022/06/24 11:00:27;;;;;;;1.80;1.70;;;26.90;8.10;;;;;;5146104;27;35899;-78
2022/06/24 11:03:15;;;;;;;2.63;1.30;;;26.50;8.50;;;;;;5142741;27;34389;-77
2022/06/24 11:05:44;;;;;;;2.25;1.38;;;26.20;8.40;;;;;;5156278;27;34088;-75
2022/06/24 11:08:13;;;;;;;2.90;1.88;;;25.90;9.30;;;;;;5159650;27;34548;-76
2022/06/24 11:10:40;;;;;;;2.65;1.20;;;25.80;9.30;;;;;;5164857;27;35642;-75
2022/06/24 11:13:06;;;;;;;3.17;1.70;;;26.00;9.80;;;;;;5145884;27;34142;-76
2022/06/24 11:15:47;;;;;;;1.17;1.15;;;26.30;9.30;;;;;;5127209;27;34066;-77
2022/06/24 11:18:17;;;;;;;2.58;1.30;;;26.80;9.30;;;;;;5145708;27;34356;-76
2022/06/24 11:21:00;;;;;;;1.33;1.23;;;27.10;8.90;;;;;;5145359;27;35573;-77
2022/06/24 11:23:28;;;;;;;1.75;1.20;;;27.60;6.30;;;;;;5146881;27;34084;-76
2022/06/24 11:25:59;;;;;;;4.68;1.35;;;28.10;7.70;;;;;;5163024;27;34193;-79
2022/06/24 11:28:29;;;;;;;1.40;1.30;;;28.40;7.20;;;;;;5151210;27;34348;-76
2022/06/24 11:30:56;;;;;;;1.33;1.23;;;28.50;6.80;;;;;;5123068;27;35958;-77
2022/06/24 11:33:23;;;;;;;1.33;1.20;;;28.60;6.90;;;;;;5144788;27;34132;-76
2022/06/24 11:35:49;;;;;;;1.00;1.00;;;28.70;6.90;;;;;;5124387;27;34286;-78
2022/06/24 11:38:19;;;;;;;1.30;1.10;;;28.90;6.60;;;;;;5136035;27;34021;-77
2022/06/24 11:40:46;;;;;;;2.92;1.40;;;29.00;6.50;;;;;;5146053;27;35763;-77
2022/06/24 11:43:14;;;;;;;1.90;1.08;;;28.90;5.90;;;;;;5130160;27;34278;-78
2022/06/24 11:45:44;;;;;;;2.15;1.10;;;28.90;5.00;;;;;;5125963;27;34131;-76
2022/06/24 11:48:12;;;;;;;1.73;0.95;;;28.90;4.80;;;;;;5146045;27;34079;-76
2022/06/24 11:50:39;;;;;;;1.10;0.98;;;28.70;4.90;;;;;;5122819;27;35459;-76
2022/06/24 11:53:07;;;;;;;0.80;0.80;;;28.40;5.20;;;;;;5126355;27;34529;-76
2022/06/24 11:55:41;;;;;;;1.10;0.88;;;28.20;5.30;;;;;;5123349;27;34181;-77
2022/06/24 11:58:25;;;;;;;0.80;0.80;;;28.00;3.40;;;;;;5124160;27;34280;-77
2022/06/24 12:00:53;;;;;;;1.33;1.17;;;27.70;3.70;;;;;;5128815;27;35994;-77
2022/06/24 12:03:21;;;;;;;1.85;0.95;;;27.40;5.00;;;;;;5168655;27;34225;-76
2022/06/24 12:05:47;;;;;;;1.27;1.10;;;27.20;6.00;;;;;;5139558;27;34716;-77
2022/06/24 12:08:14;;;;;;;1.00;0.90;;;27.20;6.40;;;;;;5124387;27;34072;-77
2022/06/24 12:10:55;;;;;;;0.88;0.88;;;27.40;6.40;;;;;;5125360;27;34258;-76
2022/06/24 12:13:27;;;;;;;1.25;1.15;;;27.60;5.60;;;;;;5141141;27;34123;-78
2022/06/24 12:15:54;;;;;;;1.38;1.27;;;27.60;6.00;;;;;;5141108;27;35843;-76
2022/06/24 12:18:22;;;;;;;2.97;1.60;;;27.70;6.10;;;;;;5124291;27;34599;-77
2022/06/24 12:20:58;;;;;;;2.58;1.05;;;27.90;6.20;;;;;;5124903;27;34831;-76
2022/06/24 12:23:31;;;;;;;1.10;1.10;;;28.00;5.40;;;;;;5123597;27;34274;-75
2022/06/24 12:25:57;;;;;;;1.77;1.08;;;28.00;6.70;;;;;;5123068;27;34235;-76
2022/06/24 12:28:25;;;;;;;1.10;0.93;;;28.10;6.80;;;;;;5106600;27;34191;-76
2022/06/24 12:31:11;;;;;;;4.35;1.15;;;28.00;6.20;;;;;;5106734;27;34238;-77
2022/06/24 12:33:50;;;;;;;2.95;1.20;;;27.90;6.00;;;;;;5148667;27;34364;-76
2022/06/24 12:36:18;;;;;;;0.82;0.82;;;28.00;6.20;;;;;;5138604;27;34250;-78
2022/06/24 12:39:06;;;;;;;0.90;0.90;;;27.90;6.00;;;;;;5145484;27;34401;-77
2022/06/24 12:41:43;;;;;;;2.47;1.20;;;27.90;4.60;;;;;;5130633;27;34998;-78
2022/06/24 12:44:09;;;;;;;1.40;1.10;;;27.80;6.00;;;;;;5157066;27;34170;-78
2022/06/24 12:52:05;;;;;;;0.88;0.88;;;27.70;6.00;;;;;;5133521;27;34169;-76
2022/06/24 12:54:31;;;;;;;1.05;0.80;;;27.70;5.70;;;;;;5143509;27;34154;-77
2022/06/24 12:56:57;;;;;;;1.27;1.05;;;27.60;5.70;;;;;;5120182;27;34270;-76
2022/06/24 12:59:23;;;;;;;0.80;0.80;;;27.50;5.80;;;;;;5141655;27;34285;-78
2022/06/24 13:01:49;;;;;;;1.20;1.00;;;27.40;5.90;;;;;;5134931;27;36731;-78
2022/06/24 13:04:15;;;;;;;0.50;0.50;;;27.10;6.30;;;;;;5176796;27;34331;-78
2022/06/24 13:06:42;;;;;;;1.08;0.60;;;26.70;6.00;;;;;;5159125;27;34144;-76
2022/06/24 13:09:09;;;;;;;0.60;0.57;;;26.60;5.80;;;;;;5148032;27;34358;-79
2022/06/24 13:11:35;;;;;;;1.52;0.50;;;26.40;4.70;;;;;;5147722;27;35889;-77